createdAt,value
2023-01-27T00:01:17.141Z,35.60
2023-01-27T00:03:43.997Z,35.19
2023-01-27T00:06:12.103Z,35.33
2023-01-27T00:08:39.161Z,35.44
2023-01-27T00:11:32.270Z,35.20
2023-01-27T00:13:58.933Z,35.40
2023-01-27T00:16:25.509Z,35.34
2023-01-27T00:18:52.435Z,35.31
2023-01-27T00:21:37.526Z,35.28
2023-01-27T00:24:22.967Z,34.88
2023-01-27T00:26:49.596Z,34.95
2023-01-27T00:29:18.217Z,35.18
2023-01-27T00:32:03.232Z,35.22
2023-01-27T00:34:30.021Z,35.06
2023-01-27T00:36:57.425Z,34.68
2023-01-27T00:39:25.034Z,35.11
2023-01-27T00:41:51.634Z,35.01
2023-01-27T00:44:18.169Z,35.01
2023-01-27T00:46:44.800Z,34.66
2023-01-27T00:49:13.364Z,34.97
2023-01-27T00:51:39.972Z,34.66
2023-01-27T00:54:06.801Z,34.54
2023-01-27T00:56:33.467Z,34.62
2023-01-27T00:59:00.302Z,34.46
2023-01-27T01:01:27.206Z,34.75
2023-01-27T01:03:54.545Z,34.58
2023-01-27T01:06:21.437Z,34.64
2023-01-27T01:08:48.731Z,34.53
2023-01-27T01:11:17.695Z,34.52
2023-01-27T01:13:45.201Z,34.32
2023-01-27T01:16:21.091Z,34.52
2023-01-27T01:18:48.677Z,34.40
2023-01-27T01:21:15.808Z,34.43
2023-01-27T01:23:45.282Z,34.38
2023-01-27T01:26:14.088Z,34.44
2023-01-27T01:28:40.808Z,34.31
2023-01-27T01:31:10.404Z,34.02
2023-01-27T01:33:37.941Z,34.16
2023-01-27T01:36:09.752Z,34.07
2023-01-27T01:38:36.930Z,34.11
2023-01-27T01:41:04.909Z,34.11
2023-01-27T01:43:31.611Z,34.23
2023-01-27T01:45:59.818Z,33.93
2023-01-27T01:48:32.877Z,34.14
2023-01-27T01:51:16.386Z,34.12
2023-01-27T01:54:07.786Z,34.22
2023-01-27T01:56:46.193Z,33.95
2023-01-27T01:59:23.576Z,34.02
2023-01-27T02:01:56.745Z,34.09
2023-01-27T02:04:31.915Z,33.82
2023-01-27T02:07:07.797Z,33.88
2023-01-27T02:09:34.782Z,33.70
2023-01-27T02:12:01.341Z,33.75
2023-01-27T02:14:28.171Z,33.88
2023-01-27T02:16:55.143Z,33.77
2023-01-27T02:19:39.409Z,34.01
2023-01-27T02:22:11.093Z,33.74
2023-01-27T02:24:44.768Z,33.82
2023-01-27T02:29:24.339Z,33.73
2023-01-27T02:31:51.133Z,33.83
2023-01-27T02:34:22.987Z,33.88
2023-01-27T02:37:07.437Z,33.90
2023-01-27T02:39:40.389Z,33.73
2023-01-27T02:42:08.910Z,33.71
2023-01-27T02:44:35.485Z,33.63
2023-01-27T02:47:03.823Z,33.74
2023-01-27T02:49:30.413Z,33.61
2023-01-27T02:51:57.053Z,33.74
2023-01-27T02:54:27.122Z,33.57
2023-01-27T02:56:54.177Z,33.66
2023-01-27T02:59:22.598Z,33.64
2023-01-27T03:01:49.317Z,33.69
2023-01-27T03:04:15.976Z,33.43
2023-01-27T03:06:43.727Z,33.63
2023-01-27T03:09:10.255Z,33.66
2023-01-27T03:11:56.306Z,33.48
2023-01-27T03:14:42.239Z,33.57
2023-01-27T03:17:27.785Z,33.50
2023-01-27T03:19:54.835Z,33.44
2023-01-27T03:22:21.413Z,33.78
2023-01-27T03:24:48.053Z,33.32
2023-01-27T03:27:14.677Z,33.49
2023-01-27T03:30:04.757Z,33.29
2023-01-27T03:32:32.267Z,33.25
2023-01-27T03:35:48.261Z,33.42
2023-01-27T03:38:37.811Z,33.28
2023-01-27T03:41:23.909Z,33.30
2023-01-27T03:44:09.174Z,33.50
2023-01-27T03:46:35.912Z,33.39
2023-01-27T03:51:27.617Z,33.20
2023-01-27T03:53:54.287Z,33.35
2023-01-27T03:56:22.259Z,33.44
2023-01-27T03:58:49.986Z,33.17
2023-01-27T04:01:20.540Z,33.10
2023-01-27T04:04:06.967Z,33.29
2023-01-27T04:06:54.903Z,33.07
2023-01-27T04:09:28.130Z,33.33
2023-01-27T04:11:56.450Z,33.44
2023-01-27T04:14:23.174Z,33.26
2023-01-27T04:16:54.601Z,33.05
2023-01-27T04:19:21.305Z,33.31
2023-01-27T04:21:48.382Z,33.30
2023-01-27T04:24:25.117Z,33.15
2023-01-27T04:26:57.445Z,33.06
2023-01-27T04:29:25.806Z,33.19
2023-01-27T04:31:52.755Z,32.98
2023-01-27T04:34:20.033Z,33.22
2023-01-27T04:36:47.716Z,32.88
2023-01-27T04:39:15.051Z,33.15
2023-01-27T04:41:42.166Z,33.13
2023-01-27T04:44:09.050Z,32.94
2023-01-27T04:46:35.976Z,32.95
2023-01-27T04:49:03.191Z,33.02
2023-01-27T04:51:29.786Z,32.97
2023-01-27T04:53:56.726Z,33.07
2023-01-27T04:56:27.783Z,33.14
2023-01-27T05:01:11.805Z,33.19
2023-01-27T05:03:38.383Z,33.02
2023-01-27T05:06:04.980Z,33.12
2023-01-27T05:08:31.796Z,32.98
2023-01-27T05:10:58.305Z,32.95
2023-01-27T05:13:24.869Z,32.96
2023-01-27T05:15:51.507Z,33.01
2023-01-27T05:18:18.147Z,32.94
2023-01-27T05:20:44.679Z,32.94
2023-01-27T05:23:29.963Z,32.82
2023-01-27T05:25:56.552Z,32.87
2023-01-27T05:28:23.064Z,33.11
2023-01-27T05:30:49.784Z,32.97
2023-01-27T05:33:16.316Z,32.92
2023-01-27T05:35:42.876Z,33.05
2023-01-27T05:38:09.469Z,32.79
2023-01-27T05:40:35.986Z,32.97
2023-01-27T05:43:02.524Z,32.83
2023-01-27T05:45:29.145Z,32.76
2023-01-27T05:47:55.717Z,32.99
2023-01-27T05:50:22.262Z,32.89
2023-01-27T05:52:48.872Z,32.79
2023-01-27T05:55:15.827Z,32.90
2023-01-27T05:57:42.447Z,32.78
2023-01-27T06:00:09.905Z,32.73
2023-01-27T06:02:37.239Z,32.94
2023-01-27T06:05:04.217Z,32.83
2023-01-27T06:09:50.345Z,32.79
2023-01-27T06:12:16.956Z,32.73
2023-01-27T06:14:43.636Z,32.96
2023-01-27T06:17:10.347Z,32.83
2023-01-27T06:19:36.861Z,32.75
2023-01-27T06:22:03.447Z,32.77
2023-01-27T06:24:30.188Z,32.88
2023-01-27T06:26:56.776Z,32.93
2023-01-27T06:29:23.271Z,32.84
2023-01-27T06:31:50.184Z,32.72
2023-01-27T06:34:16.737Z,32.98
2023-01-27T06:36:43.281Z,32.82
2023-01-27T06:39:09.840Z,32.85
2023-01-27T06:41:36.513Z,32.60
2023-01-27T06:44:03.031Z,32.81
2023-01-27T06:46:29.671Z,32.70
2023-01-27T06:48:56.235Z,32.75
2023-01-27T06:51:22.848Z,32.61
2023-01-27T06:53:49.393Z,32.61
2023-01-27T06:56:17.480Z,32.59
2023-01-27T06:58:44.272Z,32.64
2023-01-27T07:01:11.120Z,32.99
2023-01-27T07:03:37.787Z,33.03
2023-01-27T07:06:04.630Z,33.35
2023-01-27T07:08:31.409Z,33.57
2023-01-27T07:10:58.251Z,33.74
2023-01-27T07:13:24.922Z,33.59
2023-01-27T07:18:07.949Z,33.69
2023-01-27T07:20:34.836Z,33.65
2023-01-27T07:23:03.616Z,33.57
2023-01-27T07:25:31.621Z,33.49
2023-01-27T07:27:59.039Z,33.48
2023-01-27T07:30:26.972Z,33.42
2023-01-27T07:32:55.315Z,33.49
2023-01-27T07:35:23.226Z,33.28
2023-01-27T07:37:49.817Z,33.38
2023-01-27T07:40:16.805Z,33.48
2023-01-27T07:42:43.511Z,33.37
2023-01-27T07:45:10.587Z,33.23
2023-01-27T07:47:37.362Z,33.13
2023-01-27T07:50:04.286Z,33.18
2023-01-27T07:52:30.813Z,33.06
2023-01-27T07:54:57.511Z,33.09
2023-01-27T07:59:37.577Z,33.04
2023-01-27T08:02:04.375Z,32.86
2023-01-27T08:04:35.198Z,33.07
2023-01-27T08:07:07.569Z,32.98
2023-01-27T08:09:34.072Z,32.91
2023-01-27T08:12:00.712Z,32.65
2023-01-27T08:14:27.812Z,32.77
2023-01-27T08:16:54.509Z,32.83
2023-01-27T08:19:21.317Z,32.83
2023-01-27T08:21:47.960Z,32.96
2023-01-27T08:24:14.577Z,32.75
2023-01-27T08:26:41.332Z,32.74
2023-01-27T08:29:07.963Z,32.71
2023-01-27T08:31:34.658Z,32.77
2023-01-27T08:34:01.527Z,32.67
2023-01-27T08:36:28.469Z,32.83
2023-01-27T08:38:55.815Z,32.73
2023-01-27T08:41:27.645Z,32.77
2023-01-27T08:43:55.312Z,32.68
2023-01-27T08:46:22.093Z,32.82
2023-01-27T08:48:50.295Z,32.87
2023-01-27T08:51:16.918Z,32.73
2023-01-27T08:53:43.538Z,32.82
2023-01-27T08:56:14.719Z,32.98
2023-01-27T08:58:42.014Z,33.05
2023-01-27T09:01:09.226Z,33.16
2023-01-27T09:03:37.174Z,33.30
2023-01-27T09:06:04.833Z,33.58
2023-01-27T09:08:31.438Z,33.46
2023-01-27T09:11:01.122Z,33.61
2023-01-27T09:13:28.253Z,33.36
2023-01-27T09:15:54.941Z,33.31
2023-01-27T09:18:21.590Z,33.39
2023-01-27T09:20:51.901Z,33.74
2023-01-27T09:23:18.493Z,33.42
2023-01-27T09:25:45.066Z,33.71
2023-01-27T09:28:17.083Z,33.80
2023-01-27T09:30:46.931Z,33.73
2023-01-27T09:33:17.821Z,33.76
2023-01-27T09:35:55.420Z,33.77
2023-01-27T09:38:24.052Z,33.58
2023-01-27T09:41:23.019Z,33.81
2023-01-27T09:44:10.654Z,33.66
2023-01-27T09:46:55.492Z,33.45
2023-01-27T09:51:56.943Z,33.19
2023-01-27T09:54:34.654Z,32.89
2023-01-27T09:57:03.864Z,32.56
2023-01-27T09:59:57.762Z,32.37
2023-01-27T10:02:30.371Z,32.33
2023-01-27T10:05:27.719Z,32.23
2023-01-27T10:08:18.553Z,32.26
2023-01-27T10:11:09.396Z,32.23
2023-01-27T10:13:50.927Z,32.05
2023-01-27T10:16:42.339Z,32.00
2023-01-27T10:19:14.670Z,32.04
2023-01-27T10:21:47.136Z,32.58
2023-01-27T10:24:38.644Z,32.42
2023-01-27T10:27:14.405Z,32.71
2023-01-27T10:30:01.227Z,32.91
2023-01-27T10:32:37.872Z,33.04
2023-01-27T10:35:19.248Z,33.03
2023-01-27T10:38:10.750Z,32.75
2023-01-27T10:40:49.348Z,32.72
2023-01-27T10:43:26.253Z,32.24
2023-01-27T10:46:02.880Z,32.37
2023-01-27T10:48:48.590Z,32.60
2023-01-27T10:53:37.306Z,32.78
2023-01-27T10:56:04.169Z,33.00
2023-01-27T10:58:49.776Z,32.68
2023-01-27T11:01:23.047Z,32.73
2023-01-27T11:03:55.924Z,32.89
2023-01-27T11:06:27.312Z,32.95
2023-01-27T11:09:05.409Z,33.04
2023-01-27T11:11:44.316Z,33.20
2023-01-27T11:14:28.823Z,33.18
2023-01-27T11:17:15.883Z,32.66
2023-01-27T11:19:48.305Z,32.47
2023-01-27T11:22:20.754Z,32.38
2023-01-27T11:25:04.736Z,32.72
2023-01-27T11:27:56.969Z,32.51
2023-01-27T11:30:34.459Z,32.62
2023-01-27T11:33:13.790Z,32.77
2023-01-27T11:35:40.454Z,32.88
2023-01-27T11:38:15.607Z,33.11
2023-01-27T11:40:44.540Z,33.29
2023-01-27T11:43:17.215Z,32.96
2023-01-27T11:45:46.037Z,33.02
2023-01-27T11:48:17.000Z,33.14
2023-01-27T11:50:46.965Z,33.14
2023-01-27T11:53:16.507Z,33.10
2023-01-27T11:55:51.300Z,33.02
2023-01-27T11:58:43.227Z,33.22
2023-01-27T12:01:16.628Z,33.24
2023-01-27T12:03:47.771Z,33.34
2023-01-27T12:06:44.618Z,32.96
2023-01-27T12:09:29.909Z,32.67
2023-01-27T12:12:10.503Z,32.66
2023-01-27T12:14:37.476Z,32.54
2023-01-27T12:17:07.282Z,32.63
2023-01-27T12:19:49.136Z,32.67
2023-01-27T12:22:32.011Z,32.92
2023-01-27T12:25:03.356Z,32.29
2023-01-27T12:27:40.316Z,32.17
2023-01-27T12:30:18.052Z,32.70
2023-01-27T12:32:47.756Z,32.49
2023-01-27T12:35:19.713Z,32.26
2023-01-27T12:37:48.348Z,32.62
2023-01-27T12:40:28.946Z,32.49
2023-01-27T12:43:20.110Z,32.16
2023-01-27T12:46:04.975Z,31.99
2023-01-27T12:48:34.046Z,31.71
2023-01-27T12:51:13.660Z,31.50
2023-01-27T12:53:44.023Z,31.51
2023-01-27T12:56:20.768Z,31.70
2023-01-27T12:59:00.400Z,31.37
2023-01-27T13:01:28.830Z,31.18
2023-01-27T13:03:57.790Z,31.51
2023-01-27T13:06:43.602Z,31.56
2023-01-27T13:09:33.784Z,31.28
2023-01-27T13:12:25.000Z,31.46
2023-01-27T13:14:55.753Z,31.42
2023-01-27T13:17:38.330Z,31.06
2023-01-27T13:20:22.775Z,31.35
2023-01-27T13:23:15.296Z,31.10
2023-01-27T13:25:57.083Z,31.10
2023-01-27T13:28:46.064Z,31.51
2023-01-27T13:31:48.295Z,32.15
2023-01-27T13:34:38.779Z,32.34
2023-01-27T13:37:28.353Z,32.80
2023-01-27T13:40:07.313Z,32.86
2023-01-27T13:42:33.879Z,33.03
2023-01-27T13:45:05.998Z,33.19
2023-01-27T13:47:52.952Z,33.56
2023-01-27T13:50:23.427Z,33.45
2023-01-27T13:53:00.432Z,33.42
2023-01-27T13:56:01.316Z,33.44
2023-01-27T13:58:33.724Z,33.61
2023-01-27T14:01:00.309Z,33.73
2023-01-27T14:03:40.942Z,33.69
2023-01-27T14:06:17.497Z,34.19
2023-01-27T14:11:17.037Z,34.17
2023-01-27T14:14:07.184Z,33.95
2023-01-27T14:16:59.216Z,34.19
2023-01-27T14:19:46.758Z,34.38
2023-01-27T14:22:19.624Z,34.25
2023-01-27T14:24:50.205Z,34.41
2023-01-27T14:27:28.878Z,34.64
2023-01-27T14:30:21.102Z,34.67
2023-01-27T14:33:18.681Z,34.46
2023-01-27T14:35:54.464Z,34.42
2023-01-27T14:39:03.095Z,34.80
2023-01-27T14:42:01.923Z,34.53
2023-01-27T14:44:44.039Z,34.82
2023-01-27T14:47:53.680Z,34.78
2023-01-27T14:50:34.397Z,34.84
2023-01-27T14:53:19.746Z,34.83
2023-01-27T14:55:58.876Z,34.71
2023-01-27T14:58:54.903Z,34.60
2023-01-27T15:01:32.939Z,34.90
2023-01-27T15:04:27.361Z,34.57
2023-01-27T15:07:19.367Z,34.52
2023-01-27T15:09:58.098Z,34.63
2023-01-27T15:12:44.273Z,34.55
2023-01-27T15:15:19.949Z,34.58
2023-01-27T15:18:18.808Z,34.66
2023-01-27T15:21:36.129Z,34.57
2023-01-27T15:24:26.660Z,34.91
2023-01-27T15:26:54.307Z,34.89
2023-01-27T15:29:27.655Z,34.98
2023-01-27T15:32:10.552Z,34.96
2023-01-27T15:34:37.496Z,34.69
2023-01-27T15:37:19.502Z,34.49
2023-01-27T15:40:15.490Z,34.37
2023-01-27T15:42:52.517Z,34.42
2023-01-27T15:45:31.229Z,34.65
2023-01-27T15:48:00.905Z,34.61
2023-01-27T15:50:31.179Z,34.86
2023-01-27T15:53:12.698Z,34.73
2023-01-27T15:55:49.297Z,34.57
2023-01-27T15:58:37.926Z,34.61
2023-01-27T16:01:08.380Z,34.39
2023-01-27T16:03:38.832Z,34.59
2023-01-27T16:06:12.265Z,34.71
2023-01-27T16:08:43.299Z,34.46
2023-01-27T16:11:40.890Z,34.58
2023-01-27T16:14:17.097Z,34.32
2023-01-27T16:17:09.585Z,34.44
2023-01-27T16:19:48.705Z,34.43
2023-01-27T16:22:19.576Z,34.40
2023-01-27T16:24:56.329Z,34.48
2023-01-27T16:28:14.490Z,34.52
2023-01-27T16:30:56.881Z,34.20
2023-01-27T16:33:31.114Z,34.31
2023-01-27T16:36:06.273Z,34.35
2023-01-27T16:38:40.091Z,34.03
2023-01-27T16:41:21.328Z,34.03
2023-01-27T16:44:01.216Z,33.79
2023-01-27T16:46:41.701Z,33.42
2023-01-27T16:51:29.507Z,33.14
2023-01-27T16:53:58.587Z,33.00
2023-01-27T16:56:27.993Z,33.02
2023-01-27T16:59:00.633Z,33.00
2023-01-27T17:01:46.530Z,33.14
2023-01-27T17:04:21.053Z,32.83
2023-01-27T17:06:52.602Z,32.98
2023-01-27T17:09:24.858Z,32.71
2023-01-27T17:11:52.545Z,32.77
2023-01-27T17:14:30.553Z,32.40
2023-01-27T17:17:06.211Z,32.61
2023-01-27T17:19:36.873Z,32.38
2023-01-27T17:22:13.639Z,32.36
2023-01-27T17:24:50.117Z,32.27
2023-01-27T17:27:18.112Z,32.63
2023-01-27T17:29:47.638Z,32.43
2023-01-27T17:32:31.938Z,32.37
2023-01-27T17:35:02.113Z,32.46
2023-01-27T17:37:31.230Z,32.28
2023-01-27T17:39:59.997Z,32.50
2023-01-27T17:42:31.605Z,32.28
2023-01-27T17:45:31.925Z,32.60
2023-01-27T17:48:00.252Z,32.58
2023-01-27T17:50:38.089Z,32.58
2023-01-27T17:53:11.546Z,32.99
2023-01-27T17:55:39.166Z,33.27
2023-01-27T17:58:08.305Z,33.15
2023-01-27T18:00:38.610Z,33.04
2023-01-27T18:03:21.753Z,33.09
2023-01-27T18:05:51.359Z,32.74
2023-01-27T18:08:19.395Z,32.57
2023-01-27T18:10:46.425Z,32.65
2023-01-27T18:13:15.635Z,32.64
2023-01-27T18:16:18.713Z,32.55
2023-01-27T18:18:46.547Z,32.76
2023-01-27T18:21:19.190Z,32.53
2023-01-27T18:23:47.911Z,32.40
2023-01-27T18:26:17.350Z,32.49
2023-01-27T18:28:45.925Z,32.33
2023-01-27T18:31:17.297Z,32.56
2023-01-27T18:33:46.399Z,33.69
2023-01-27T18:36:24.457Z,34.04
2023-01-27T18:38:51.480Z,34.02
2023-01-27T18:41:27.378Z,34.16
2023-01-27T18:43:57.841Z,34.34
2023-01-27T18:48:42.732Z,34.18
2023-01-27T18:51:14.373Z,33.90
2023-01-27T18:53:42.650Z,33.91
2023-01-27T18:56:09.697Z,33.70
2023-01-27T18:58:37.017Z,33.72
2023-01-27T19:01:06.885Z,33.70
2023-01-27T19:03:38.896Z,33.79
2023-01-27T19:06:13.929Z,33.79
2023-01-27T19:08:40.692Z,33.92
2023-01-27T19:11:09.142Z,34.29
2023-01-27T19:13:35.773Z,34.48
2023-01-27T19:16:02.516Z,34.94
2023-01-27T19:18:34.419Z,34.65
2023-01-27T19:21:05.228Z,34.73
2023-01-27T19:23:32.716Z,34.65
2023-01-27T19:26:02.474Z,34.69
2023-01-27T19:28:31.791Z,34.42
2023-01-27T19:31:00.021Z,34.41
2023-01-27T19:33:28.287Z,34.18
2023-01-27T19:36:24.165Z,34.39
2023-01-27T19:39:01.221Z,34.16
2023-01-27T19:41:29.514Z,34.28
2023-01-27T19:43:56.227Z,34.22
2023-01-27T19:46:23.354Z,34.39
2023-01-27T19:48:52.180Z,34.18
2023-01-27T19:51:19.373Z,34.00
2023-01-27T19:53:46.570Z,34.10
2023-01-27T19:56:16.962Z,33.79
2023-01-27T19:58:47.144Z,33.90
2023-01-27T20:01:13.853Z,33.84
2023-01-27T20:03:40.625Z,33.50
2023-01-27T20:06:17.784Z,33.56
2023-01-27T20:08:45.017Z,33.34
2023-01-27T20:11:29.620Z,33.18
2023-01-27T20:13:56.706Z,33.30
2023-01-27T20:16:25.597Z,32.90
2023-01-27T20:18:53.721Z,32.91
2023-01-27T20:21:20.805Z,33.02
2023-01-27T20:23:48.769Z,32.82
2023-01-27T20:26:16.277Z,32.94
2023-01-27T20:28:46.178Z,32.82
2023-01-27T20:31:14.855Z,32.80
2023-01-27T20:33:44.002Z,32.96
2023-01-27T20:36:16.807Z,32.83
2023-01-27T20:38:44.002Z,32.88
2023-01-27T20:41:14.762Z,32.93
2023-01-27T20:43:41.974Z,32.61
2023-01-27T20:46:11.989Z,32.85
2023-01-27T20:48:41.501Z,32.74
2023-01-27T20:51:13.740Z,32.74
2023-01-27T20:53:45.238Z,32.62
2023-01-27T20:56:14.885Z,32.78
2023-01-27T20:58:42.485Z,32.84
2023-01-27T21:01:12.400Z,32.89
2023-01-27T21:03:40.231Z,32.70
2023-01-27T21:06:10.614Z,32.52
2023-01-27T21:08:37.642Z,32.61
2023-01-27T21:11:06.570Z,32.53
2023-01-27T21:13:33.789Z,32.54
2023-01-27T21:16:01.777Z,32.54
2023-01-27T21:18:29.220Z,32.55
2023-01-27T21:21:02.141Z,32.65
2023-01-27T21:23:29.338Z,32.71
2023-01-27T21:25:56.432Z,32.59
2023-01-27T21:28:26.117Z,32.72
2023-01-27T21:30:52.718Z,32.38
2023-01-27T21:33:19.524Z,32.34
2023-01-27T21:35:54.487Z,32.55
2023-01-27T21:38:21.255Z,32.51
2023-01-27T21:40:47.838Z,32.43
2023-01-27T21:43:32.947Z,32.46
2023-01-27T21:46:01.097Z,32.67
2023-01-27T21:48:27.722Z,32.44
2023-01-27T21:53:15.231Z,32.33
2023-01-27T21:55:45.813Z,32.36
2023-01-27T21:58:12.336Z,32.37
2023-01-27T22:00:39.819Z,32.46
2023-01-27T22:03:07.310Z,32.48
2023-01-27T22:05:37.500Z,32.29
2023-01-27T22:10:23.520Z,32.19
2023-01-27T22:12:51.197Z,32.48
2023-01-27T22:15:20.080Z,32.42
2023-01-27T22:17:47.020Z,32.39
2023-01-27T22:20:17.459Z,32.37
2023-01-27T22:22:45.170Z,32.47
2023-01-27T22:25:14.871Z,32.81
2023-01-27T22:27:43.062Z,32.94
2023-01-27T22:30:18.676Z,32.98
2023-01-27T22:32:48.366Z,33.09
2023-01-27T22:35:17.619Z,32.98
2023-01-27T22:37:45.894Z,33.08
2023-01-27T22:40:13.378Z,33.20
2023-01-27T22:42:40.142Z,33.55
2023-01-27T22:45:10.642Z,33.86
2023-01-27T22:47:37.384Z,34.14
2023-01-27T22:50:04.352Z,34.12
2023-01-27T22:52:30.999Z,34.06
2023-01-27T22:54:57.553Z,34.08
2023-01-27T22:57:30.066Z,34.02
2023-01-27T22:59:58.234Z,33.90
2023-01-27T23:04:57.054Z,33.72
2023-01-27T23:07:24.068Z,33.62
2023-01-27T23:09:50.704Z,33.59
2023-01-27T23:12:18.174Z,33.89
2023-01-27T23:14:44.910Z,34.09
2023-01-27T23:17:11.616Z,34.36
2023-01-27T23:19:38.212Z,34.46
2023-01-27T23:22:04.997Z,34.08
2023-01-27T23:24:31.817Z,34.12
2023-01-27T23:26:59.134Z,33.84
2023-01-27T23:29:26.829Z,33.55
2023-01-27T23:31:55.113Z,33.66
2023-01-27T23:34:21.892Z,33.50
2023-01-27T23:36:48.928Z,33.40
2023-01-27T23:39:16.371Z,33.21
2023-01-27T23:41:42.988Z,33.31
2023-01-27T23:44:11.200Z,33.25
2023-01-27T23:46:38.271Z,32.88
2023-01-27T23:49:04.834Z,32.90
2023-01-27T23:51:31.879Z,32.94
2023-01-27T23:53:58.474Z,32.72
2023-01-27T23:56:25.135Z,32.56
2023-01-27T23:58:51.734Z,32.80
